sensor_id;sensor_type;location;lat;lon;timestamp;P1;durP1;ratioP1;P2;durP2;ratioP2
1651;SDS011;823;49.028;8.454;2023-04-21T00:01:48;29.83;;;15.40;;
1651;SDS011;823;49.028;8.454;2023-04-21T00:06:48;33.25;;;15.82;;
1651;SDS011;823;49.028;8.454;2023-04-21T00:11:49;27.90;;;15.57;;
1651;SDS011;823;49.028;8.454;2023-04-21T00:16:50;36.23;;;16.73;;
1651;SDS011;823;49.028;8.454;2023-04-21T00:21:51;36.40;;;16.37;;
1651;SDS011;823;49.028;8.454;2023-04-21T00:26:57;35.47;;;17.00;;
1651;SDS011;823;49.028;8.454;2023-04-21T00:31:57;31.15;;;13.75;;
1651;SDS011;823;49.028;8.454;2023-04-21T00:36:58;31.33;;;13.87;;
1651;SDS011;823;49.028;8.454;2023-04-21T00:41:59;30.23;;;14.55;;
1651;SDS011;823;49.028;8.454;2023-04-21T00:47:00;32.70;;;14.57;;
1651;SDS011;823;49.028;8.454;2023-04-21T00:52:00;30.40;;;14.50;;
1651;SDS011;823;49.028;8.454;2023-04-21T00:57:01;39.00;;;16.63;;
1651;SDS011;823;49.028;8.454;2023-04-21T01:02:03;31.83;;;16.70;;
1651;SDS011;823;49.028;8.454;2023-04-21T01:07:04;36.97;;;15.67;;
1651;SDS011;823;49.028;8.454;2023-04-21T01:12:09;39.43;;;17.17;;
1651;SDS011;823;49.028;8.454;2023-04-21T01:17:10;49.93;;;19.33;;
1651;SDS011;823;49.028;8.454;2023-04-21T01:22:11;33.08;;;16.40;;
1651;SDS011;823;49.028;8.454;2023-04-21T01:27:16;33.83;;;16.27;;
1651;SDS011;823;49.028;8.454;2023-04-21T01:32:19;37.93;;;16.40;;
1651;SDS011;823;49.028;8.454;2023-04-21T01:37:25;41.90;;;16.17;;
1651;SDS011;823;49.028;8.454;2023-04-21T01:42:28;36.87;;;16.70;;
1651;SDS011;823;49.028;8.454;2023-04-21T01:47:28;42.83;;;17.67;;
1651;SDS011;823;49.028;8.454;2023-04-21T01:52:29;34.20;;;16.20;;
1651;SDS011;823;49.028;8.454;2023-04-21T01:57:29;38.20;;;16.42;;
1651;SDS011;823;49.028;8.454;2023-04-21T02:02:29;38.72;;;16.52;;
1651;SDS011;823;49.028;8.454;2023-04-21T02:07:30;34.97;;;15.87;;
1651;SDS011;823;49.028;8.454;2023-04-21T02:12:30;40.83;;;18.03;;
1651;SDS011;823;49.028;8.454;2023-04-21T02:17:30;34.13;;;15.10;;
1651;SDS011;823;49.028;8.454;2023-04-21T02:22:31;33.63;;;15.70;;
1651;SDS011;823;49.028;8.454;2023-04-21T02:27:31;36.10;;;16.20;;
1651;SDS011;823;49.028;8.454;2023-04-21T02:32:31;32.53;;;16.13;;
1651;SDS011;823;49.028;8.454;2023-04-21T02:37:33;28.20;;;14.07;;
1651;SDS011;823;49.028;8.454;2023-04-21T02:42:33;33.93;;;16.40;;
1651;SDS011;823;49.028;8.454;2023-04-21T02:47:33;34.80;;;15.53;;
1651;SDS011;823;49.028;8.454;2023-04-21T02:52:34;40.90;;;15.32;;
1651;SDS011;823;49.028;8.454;2023-04-21T02:57:36;31.23;;;14.10;;
1651;SDS011;823;49.028;8.454;2023-04-21T03:02:36;35.25;;;14.73;;
1651;SDS011;823;49.028;8.454;2023-04-21T03:07:37;29.03;;;13.10;;
1651;SDS011;823;49.028;8.454;2023-04-21T03:12:37;30.10;;;14.83;;
1651;SDS011;823;49.028;8.454;2023-04-21T03:17:38;29.65;;;12.75;;
1651;SDS011;823;49.028;8.454;2023-04-21T03:22:38;23.30;;;12.52;;
1651;SDS011;823;49.028;8.454;2023-04-21T03:27:38;29.90;;;13.27;;
1651;SDS011;823;49.028;8.454;2023-04-21T03:32:39;37.07;;;14.50;;
1651;SDS011;823;49.028;8.454;2023-04-21T03:37:39;28.90;;;13.30;;
1651;SDS011;823;49.028;8.454;2023-04-21T03:42:39;34.80;;;13.70;;
1651;SDS011;823;49.028;8.454;2023-04-21T03:47:40;25.47;;;12.67;;
1651;SDS011;823;49.028;8.454;2023-04-21T03:52:40;36.47;;;12.43;;
1651;SDS011;823;49.028;8.454;2023-04-21T03:57:41;29.80;;;12.18;;
1651;SDS011;823;49.028;8.454;2023-04-21T04:02:41;23.30;;;11.17;;
1651;SDS011;823;49.028;8.454;2023-04-21T04:07:42;23.80;;;10.57;;
1651;SDS011;823;49.028;8.454;2023-04-21T04:12:42;25.17;;;11.37;;
1651;SDS011;823;49.028;8.454;2023-04-21T04:17:43;33.33;;;13.02;;
1651;SDS011;823;49.028;8.454;2023-04-21T04:22:43;27.95;;;12.48;;
1651;SDS011;823;49.028;8.454;2023-04-21T04:27:43;36.20;;;13.68;;
1651;SDS011;823;49.028;8.454;2023-04-21T04:32:44;31.60;;;13.17;;
1651;SDS011;823;49.028;8.454;2023-04-21T04:37:44;28.27;;;13.10;;
1651;SDS011;823;49.028;8.454;2023-04-21T04:42:44;30.50;;;13.70;;
1651;SDS011;823;49.028;8.454;2023-04-21T04:47:45;33.67;;;14.87;;
1651;SDS011;823;49.028;8.454;2023-04-21T04:52:46;33.20;;;13.10;;
1651;SDS011;823;49.028;8.454;2023-04-21T04:57:48;30.50;;;13.30;;
1651;SDS011;823;49.028;8.454;2023-04-21T05:02:48;33.97;;;14.47;;
1651;SDS011;823;49.028;8.454;2023-04-21T05:07:49;31.25;;;11.98;;
1651;SDS011;823;49.028;8.454;2023-04-21T05:12:49;37.07;;;14.50;;
1651;SDS011;823;49.028;8.454;2023-04-21T05:17:49;31.75;;;14.68;;
1651;SDS011;823;49.028;8.454;2023-04-21T05:22:50;26.08;;;12.55;;
1651;SDS011;823;49.028;8.454;2023-04-21T05:27:50;31.53;;;13.47;;
1651;SDS011;823;49.028;8.454;2023-04-21T05:32:51;30.23;;;13.23;;
1651;SDS011;823;49.028;8.454;2023-04-21T05:37:51;29.20;;;13.13;;
1651;SDS011;823;49.028;8.454;2023-04-21T05:42:51;33.53;;;15.25;;
1651;SDS011;823;49.028;8.454;2023-04-21T05:47:52;30.57;;;12.87;;
1651;SDS011;823;49.028;8.454;2023-04-21T05:52:52;34.23;;;15.00;;
1651;SDS011;823;49.028;8.454;2023-04-21T05:57:52;24.13;;;13.45;;
1651;SDS011;823;49.028;8.454;2023-04-21T06:02:52;28.23;;;14.05;;
1651;SDS011;823;49.028;8.454;2023-04-21T06:07:53;33.35;;;14.63;;
1651;SDS011;823;49.028;8.454;2023-04-21T06:12:53;33.25;;;14.77;;
1651;SDS011;823;49.028;8.454;2023-04-21T06:17:53;29.60;;;14.88;;
1651;SDS011;823;49.028;8.454;2023-04-21T06:22:54;27.17;;;13.23;;
1651;SDS011;823;49.028;8.454;2023-04-21T06:27:54;26.07;;;12.80;;
1651;SDS011;823;49.028;8.454;2023-04-21T06:32:55;29.40;;;13.77;;
1651;SDS011;823;49.028;8.454;2023-04-21T06:37:55;27.63;;;13.10;;
1651;SDS011;823;49.028;8.454;2023-04-21T06:42:56;30.08;;;14.00;;
1651;SDS011;823;49.028;8.454;2023-04-21T06:47:56;30.88;;;14.07;;
1651;SDS011;823;49.028;8.454;2023-04-21T06:52:56;30.73;;;14.75;;
1651;SDS011;823;49.028;8.454;2023-04-21T06:57:56;22.07;;;9.47;;
1651;SDS011;823;49.028;8.454;2023-04-21T07:02:57;20.20;;;7.07;;
1651;SDS011;823;49.028;8.454;2023-04-21T07:07:57;15.67;;;7.57;;
1651;SDS011;823;49.028;8.454;2023-04-21T07:13:00;15.17;;;6.83;;
1651;SDS011;823;49.028;8.454;2023-04-21T07:18:01;14.90;;;7.10;;
1651;SDS011;823;49.028;8.454;2023-04-21T07:23:01;10.67;;;6.87;;
1651;SDS011;823;49.028;8.454;2023-04-21T07:28:02;16.13;;;6.50;;
1651;SDS011;823;49.028;8.454;2023-04-21T07:33:03;15.50;;;7.43;;
1651;SDS011;823;49.028;8.454;2023-04-21T07:38:04;16.03;;;7.10;;
1651;SDS011;823;49.028;8.454;2023-04-21T07:43:04;11.07;;;6.77;;
1651;SDS011;823;49.028;8.454;2023-04-21T07:48:04;12.80;;;7.20;;
1651;SDS011;823;49.028;8.454;2023-04-21T07:53:06;11.70;;;6.30;;
1651;SDS011;823;49.028;8.454;2023-04-21T07:58:06;9.15;;;5.95;;
1651;SDS011;823;49.028;8.454;2023-04-21T08:03:08;10.33;;;6.60;;
1651;SDS011;823;49.028;8.454;2023-04-21T08:08:09;8.88;;;5.97;;
1651;SDS011;823;49.028;8.454;2023-04-21T08:13:09;12.10;;;6.13;;
1651;SDS011;823;49.028;8.454;2023-04-21T08:18:09;11.47;;;6.17;;
1651;SDS011;823;49.028;8.454;2023-04-21T08:23:10;8.37;;;4.07;;
1651;SDS011;823;49.028;8.454;2023-04-21T08:28:10;9.93;;;5.28;;
1651;SDS011;823;49.028;8.454;2023-04-21T08:33:10;6.70;;;4.53;;
1651;SDS011;823;49.028;8.454;2023-04-21T08:38:12;9.83;;;5.13;;
1651;SDS011;823;49.028;8.454;2023-04-21T08:43:12;10.27;;;6.27;;
1651;SDS011;823;49.028;8.454;2023-04-21T08:48:13;8.88;;;5.07;;
1651;SDS011;823;49.028;8.454;2023-04-21T08:53:17;9.40;;;4.63;;
1651;SDS011;823;49.028;8.454;2023-04-21T08:58:19;7.67;;;4.70;;
1651;SDS011;823;49.028;8.454;2023-04-21T09:03:22;9.87;;;4.87;;
1651;SDS011;823;49.028;8.454;2023-04-21T09:08:24;9.80;;;4.40;;
1651;SDS011;823;49.028;8.454;2023-04-21T09:13:33;9.73;;;4.43;;
1651;SDS011;823;49.028;8.454;2023-04-21T09:18:35;20.63;;;4.57;;
1651;SDS011;823;49.028;8.454;2023-04-21T09:23:46;7.97;;;4.67;;
1651;SDS011;823;49.028;8.454;2023-04-21T09:28:48;10.77;;;4.50;;
1651;SDS011;823;49.028;8.454;2023-04-21T09:33:51;11.27;;;5.33;;
1651;SDS011;823;49.028;8.454;2023-04-21T09:43:53;6.32;;;3.92;;
1651;SDS011;823;49.028;8.454;2023-04-21T09:48:54;7.30;;;3.67;;
1651;SDS011;823;49.028;8.454;2023-04-21T09:53:57;9.23;;;3.47;;
1651;SDS011;823;49.028;8.454;2023-04-21T09:58:59;5.53;;;3.10;;
1651;SDS011;823;49.028;8.454;2023-04-21T10:04:01;7.40;;;3.60;;
1651;SDS011;823;49.028;8.454;2023-04-21T10:09:02;5.63;;;3.53;;
1651;SDS011;823;49.028;8.454;2023-04-21T10:14:04;3.40;;;2.53;;
1651;SDS011;823;49.028;8.454;2023-04-21T10:19:24;3.60;;;2.60;;
1651;SDS011;823;49.028;8.454;2023-04-21T10:24:28;5.43;;;2.70;;
1651;SDS011;823;49.028;8.454;2023-04-21T10:29:30;5.23;;;2.73;;
1651;SDS011;823;49.028;8.454;2023-04-21T10:34:36;6.63;;;3.20;;
1651;SDS011;823;49.028;8.454;2023-04-21T10:39:44;6.07;;;3.30;;
1651;SDS011;823;49.028;8.454;2023-04-21T10:50:10;4.83;;;2.80;;
1651;SDS011;823;49.028;8.454;2023-04-21T10:55:13;3.90;;;2.57;;
1651;SDS011;823;49.028;8.454;2023-04-21T11:00:16;4.00;;;2.53;;
1651;SDS011;823;49.028;8.454;2023-04-21T11:05:33;4.13;;;2.83;;
1651;SDS011;823;49.028;8.454;2023-04-21T11:10:41;6.00;;;3.33;;
1651;SDS011;823;49.028;8.454;2023-04-21T11:15:55;6.17;;;3.97;;
1651;SDS011;823;49.028;8.454;2023-04-21T11:21:12;6.37;;;2.97;;
1651;SDS011;823;49.028;8.454;2023-04-21T11:26:17;7.67;;;4.30;;
1651;SDS011;823;49.028;8.454;2023-04-21T11:31:19;5.27;;;3.30;;
1651;SDS011;823;49.028;8.454;2023-04-21T11:36:20;11.63;;;3.70;;
1651;SDS011;823;49.028;8.454;2023-04-21T11:41:21;6.70;;;3.60;;
1651;SDS011;823;49.028;8.454;2023-04-21T11:46:23;5.07;;;2.70;;
1651;SDS011;823;49.028;8.454;2023-04-21T11:51:25;6.70;;;3.30;;
1651;SDS011;823;49.028;8.454;2023-04-21T11:56:27;8.23;;;4.33;;
1651;SDS011;823;49.028;8.454;2023-04-21T12:01:27;9.00;;;4.43;;
1651;SDS011;823;49.028;8.454;2023-04-21T12:06:27;14.25;;;4.95;;
1651;SDS011;823;49.028;8.454;2023-04-21T12:11:28;9.40;;;5.63;;
1651;SDS011;823;49.028;8.454;2023-04-21T12:16:29;7.13;;;4.70;;
1651;SDS011;823;49.028;8.454;2023-04-21T12:21:30;9.17;;;5.93;;
1651;SDS011;823;49.028;8.454;2023-04-21T12:26:30;9.67;;;4.87;;
1651;SDS011;823;49.028;8.454;2023-04-21T12:31:30;10.57;;;5.70;;
1651;SDS011;823;49.028;8.454;2023-04-21T12:36:31;8.70;;;6.38;;
1651;SDS011;823;49.028;8.454;2023-04-21T12:41:31;9.67;;;5.70;;
1651;SDS011;823;49.028;8.454;2023-04-21T12:46:33;9.57;;;5.30;;
1651;SDS011;823;49.028;8.454;2023-04-21T12:51:34;10.70;;;6.87;;
1651;SDS011;823;49.028;8.454;2023-04-21T12:56:34;11.20;;;6.47;;
1651;SDS011;823;49.028;8.454;2023-04-21T13:01:35;9.23;;;6.43;;
1651;SDS011;823;49.028;8.454;2023-04-21T13:06:37;12.90;;;7.53;;
1651;SDS011;823;49.028;8.454;2023-04-21T13:11:38;13.20;;;6.90;;
1651;SDS011;823;49.028;8.454;2023-04-21T13:16:38;10.80;;;5.57;;
1651;SDS011;823;49.028;8.454;2023-04-21T13:21:39;12.90;;;6.50;;
1651;SDS011;823;49.028;8.454;2023-04-21T13:26:40;9.00;;;4.93;;
1651;SDS011;823;49.028;8.454;2023-04-21T13:31:40;11.90;;;6.20;;
1651;SDS011;823;49.028;8.454;2023-04-21T13:36:41;12.45;;;6.05;;
1651;SDS011;823;49.028;8.454;2023-04-21T13:41:41;10.23;;;5.72;;
1651;SDS011;823;49.028;8.454;2023-04-21T13:46:41;14.20;;;6.50;;
1651;SDS011;823;49.028;8.454;2023-04-21T13:51:42;8.60;;;4.80;;
1651;SDS011;823;49.028;8.454;2023-04-21T13:56:42;5.73;;;3.50;;
1651;SDS011;823;49.028;8.454;2023-04-21T14:01:42;8.20;;;4.93;;
1651;SDS011;823;49.028;8.454;2023-04-21T14:06:43;8.80;;;5.17;;
1651;SDS011;823;49.028;8.454;2023-04-21T14:11:43;12.50;;;5.60;;
1651;SDS011;823;49.028;8.454;2023-04-21T14:16:44;7.50;;;4.90;;
1651;SDS011;823;49.028;8.454;2023-04-21T14:21:47;8.03;;;4.40;;
1651;SDS011;823;49.028;8.454;2023-04-21T14:26:48;10.73;;;3.80;;
1651;SDS011;823;49.028;8.454;2023-04-21T14:31:48;7.30;;;4.50;;
1651;SDS011;823;49.028;8.454;2023-04-21T14:36:50;46.27;;;6.37;;
1651;SDS011;823;49.028;8.454;2023-04-21T14:41:51;5.53;;;3.67;;
1651;SDS011;823;49.028;8.454;2023-04-21T14:46:51;6.53;;;3.90;;
1651;SDS011;823;49.028;8.454;2023-04-21T14:51:52;7.80;;;4.50;;
1651;SDS011;823;49.028;8.454;2023-04-21T14:56:52;5.33;;;3.30;;
1651;SDS011;823;49.028;8.454;2023-04-21T15:01:52;3.88;;;2.80;;
1651;SDS011;823;49.028;8.454;2023-04-21T15:06:53;5.87;;;2.43;;
1651;SDS011;823;49.028;8.454;2023-04-21T15:11:53;6.50;;;3.37;;
1651;SDS011;823;49.028;8.454;2023-04-21T15:16:54;5.50;;;3.27;;
1651;SDS011;823;49.028;8.454;2023-04-21T15:21:54;6.03;;;3.37;;
1651;SDS011;823;49.028;8.454;2023-04-21T15:26:55;6.30;;;3.20;;
1651;SDS011;823;49.028;8.454;2023-04-21T15:31:56;8.20;;;1.93;;
1651;SDS011;823;49.028;8.454;2023-04-21T15:36:56;3.43;;;1.40;;
1651;SDS011;823;49.028;8.454;2023-04-21T15:41:57;3.63;;;1.00;;
1651;SDS011;823;49.028;8.454;2023-04-21T15:46:58;7.23;;;1.50;;
1651;SDS011;823;49.028;8.454;2023-04-21T15:51:58;2.73;;;1.23;;
1651;SDS011;823;49.028;8.454;2023-04-21T15:56:59;1.90;;;1.00;;
1651;SDS011;823;49.028;8.454;2023-04-21T16:02:01;1.87;;;1.30;;
1651;SDS011;823;49.028;8.454;2023-04-21T16:07:02;2.50;;;1.73;;
1651;SDS011;823;49.028;8.454;2023-04-21T16:12:02;1.67;;;1.30;;
1651;SDS011;823;49.028;8.454;2023-04-21T16:17:07;4.40;;;2.83;;
1651;SDS011;823;49.028;8.454;2023-04-21T16:22:08;9.73;;;2.38;;
1651;SDS011;823;49.028;8.454;2023-04-21T16:27:08;4.40;;;1.83;;
1651;SDS011;823;49.028;8.454;2023-04-21T16:32:08;7.38;;;1.98;;
1651;SDS011;823;49.028;8.454;2023-04-21T16:37:09;5.70;;;3.23;;
1651;SDS011;823;49.028;8.454;2023-04-21T16:42:09;5.90;;;3.20;;
1651;SDS011;823;49.028;8.454;2023-04-21T16:47:10;7.93;;;3.20;;
1651;SDS011;823;49.028;8.454;2023-04-21T16:52:10;9.43;;;4.60;;
1651;SDS011;823;49.028;8.454;2023-04-21T16:57:10;7.65;;;2.67;;
1651;SDS011;823;49.028;8.454;2023-04-21T17:02:11;6.77;;;3.13;;
1651;SDS011;823;49.028;8.454;2023-04-21T17:07:11;5.17;;;2.80;;
1651;SDS011;823;49.028;8.454;2023-04-21T17:12:12;5.57;;;3.23;;
1651;SDS011;823;49.028;8.454;2023-04-21T17:17:12;7.60;;;3.40;;
1651;SDS011;823;49.028;8.454;2023-04-21T17:22:13;3.50;;;2.53;;
1651;SDS011;823;49.028;8.454;2023-04-21T17:27:13;18.70;;;6.40;;
1651;SDS011;823;49.028;8.454;2023-04-21T17:32:14;7.93;;;4.07;;
1651;SDS011;823;49.028;8.454;2023-04-21T17:37:14;6.00;;;3.80;;
1651;SDS011;823;49.028;8.454;2023-04-21T17:42:14;5.93;;;3.10;;
1651;SDS011;823;49.028;8.454;2023-04-21T17:47:15;8.57;;;3.40;;
1651;SDS011;823;49.028;8.454;2023-04-21T17:52:15;4.17;;;2.90;;
1651;SDS011;823;49.028;8.454;2023-04-21T17:57:16;4.77;;;2.67;;
1651;SDS011;823;49.028;8.454;2023-04-21T18:02:16;5.77;;;2.90;;
1651;SDS011;823;49.028;8.454;2023-04-21T18:07:17;6.40;;;3.43;;
1651;SDS011;823;49.028;8.454;2023-04-21T18:12:17;5.70;;;2.87;;
1651;SDS011;823;49.028;8.454;2023-04-21T18:17:18;4.27;;;3.00;;
1651;SDS011;823;49.028;8.454;2023-04-21T18:22:19;2.50;;;1.77;;
1651;SDS011;823;49.028;8.454;2023-04-21T18:27:19;3.23;;;2.03;;
1651;SDS011;823;49.028;8.454;2023-04-21T18:32:20;2.77;;;1.60;;
1651;SDS011;823;49.028;8.454;2023-04-21T18:37:20;2.00;;;1.23;;
1651;SDS011;823;49.028;8.454;2023-04-21T18:42:20;2.55;;;1.48;;
1651;SDS011;823;49.028;8.454;2023-04-21T18:47:21;2.00;;;1.47;;
1651;SDS011;823;49.028;8.454;2023-04-21T18:52:22;3.33;;;1.73;;
1651;SDS011;823;49.028;8.454;2023-04-21T18:57:22;3.03;;;2.07;;
1651;SDS011;823;49.028;8.454;2023-04-21T19:02:23;3.60;;;2.87;;
1651;SDS011;823;49.028;8.454;2023-04-21T19:07:23;3.17;;;2.80;;
1651;SDS011;823;49.028;8.454;2023-04-21T19:12:23;3.00;;;2.53;;
1651;SDS011;823;49.028;8.454;2023-04-21T19:17:24;4.80;;;2.90;;
1651;SDS011;823;49.028;8.454;2023-04-21T19:22:25;2.90;;;1.80;;
1651;SDS011;823;49.028;8.454;2023-04-21T19:27:27;3.30;;;2.10;;
1651;SDS011;823;49.028;8.454;2023-04-21T19:32:28;5.80;;;2.93;;
1651;SDS011;823;49.028;8.454;2023-04-21T19:37:29;3.80;;;2.60;;
1651;SDS011;823;49.028;8.454;2023-04-21T19:42:29;3.90;;;2.30;;
1651;SDS011;823;49.028;8.454;2023-04-21T19:47:30;4.07;;;2.57;;
1651;SDS011;823;49.028;8.454;2023-04-21T19:52:35;5.33;;;2.87;;
1651;SDS011;823;49.028;8.454;2023-04-21T19:57:35;6.40;;;2.10;;
1651;SDS011;823;49.028;8.454;2023-04-21T20:02:35;3.00;;;2.30;;
1651;SDS011;823;49.028;8.454;2023-04-21T20:07:36;6.25;;;2.63;;
1651;SDS011;823;49.028;8.454;2023-04-21T20:12:37;7.27;;;2.50;;
1651;SDS011;823;49.028;8.454;2023-04-21T20:17:37;5.50;;;3.30;;
1651;SDS011;823;49.028;8.454;2023-04-21T20:22:38;5.40;;;3.87;;
1651;SDS011;823;49.028;8.454;2023-04-21T20:27:38;9.30;;;4.60;;
1651;SDS011;823;49.028;8.454;2023-04-21T20:32:38;16.87;;;4.20;;
1651;SDS011;823;49.028;8.454;2023-04-21T20:37:39;9.20;;;7.13;;
1651;SDS011;823;49.028;8.454;2023-04-21T20:42:41;7.17;;;4.37;;
1651;SDS011;823;49.028;8.454;2023-04-21T20:47:43;13.73;;;5.20;;
1651;SDS011;823;49.028;8.454;2023-04-21T20:52:44;9.63;;;5.40;;
1651;SDS011;823;49.028;8.454;2023-04-21T20:57:44;5.83;;;3.17;;
1651;SDS011;823;49.028;8.454;2023-04-21T21:02:44;6.03;;;3.43;;
1651;SDS011;823;49.028;8.454;2023-04-21T21:07:45;6.70;;;2.80;;
1651;SDS011;823;49.028;8.454;2023-04-21T21:12:45;5.20;;;2.50;;
1651;SDS011;823;49.028;8.454;2023-04-21T21:17:46;3.00;;;2.30;;
1651;SDS011;823;49.028;8.454;2023-04-21T21:22:46;3.20;;;2.50;;
1651;SDS011;823;49.028;8.454;2023-04-21T21:27:46;13.73;;;2.73;;
1651;SDS011;823;49.028;8.454;2023-04-21T21:32:47;4.07;;;2.87;;
1651;SDS011;823;49.028;8.454;2023-04-21T21:37:48;5.37;;;3.77;;
1651;SDS011;823;49.028;8.454;2023-04-21T21:42:48;12.73;;;4.00;;
1651;SDS011;823;49.028;8.454;2023-04-21T21:47:49;5.83;;;3.17;;
1651;SDS011;823;49.028;8.454;2023-04-21T21:52:49;7.33;;;4.27;;
1651;SDS011;823;49.028;8.454;2023-04-21T21:57:49;9.45;;;4.90;;
1651;SDS011;823;49.028;8.454;2023-04-21T22:02:50;7.70;;;3.43;;
1651;SDS011;823;49.028;8.454;2023-04-21T22:07:50;7.15;;;3.60;;
1651;SDS011;823;49.028;8.454;2023-04-21T22:12:52;6.27;;;3.20;;
1651;SDS011;823;49.028;8.454;2023-04-21T22:17:53;9.73;;;3.40;;
1651;SDS011;823;49.028;8.454;2023-04-21T22:22:53;6.17;;;3.20;;
1651;SDS011;823;49.028;8.454;2023-04-21T22:27:54;8.33;;;3.97;;
1651;SDS011;823;49.028;8.454;2023-04-21T22:32:55;6.77;;;3.70;;
1651;SDS011;823;49.028;8.454;2023-04-21T22:37:55;7.60;;;3.70;;
1651;SDS011;823;49.028;8.454;2023-04-21T22:42:55;5.85;;;3.42;;
1651;SDS011;823;49.028;8.454;2023-04-21T22:47:56;6.65;;;4.32;;
1651;SDS011;823;49.028;8.454;2023-04-21T22:52:56;4.30;;;3.50;;
1651;SDS011;823;49.028;8.454;2023-04-21T22:57:56;5.30;;;3.33;;
1651;SDS011;823;49.028;8.454;2023-04-21T23:02:57;6.80;;;3.73;;
1651;SDS011;823;49.028;8.454;2023-04-21T23:07:57;5.33;;;2.90;;
1651;SDS011;823;49.028;8.454;2023-04-21T23:12:57;7.18;;;3.58;;
1651;SDS011;823;49.028;8.454;2023-04-21T23:17:58;7.75;;;3.17;;
1651;SDS011;823;49.028;8.454;2023-04-21T23:22:58;8.35;;;3.75;;
1651;SDS011;823;49.028;8.454;2023-04-21T23:27:58;9.90;;;4.20;;
1651;SDS011;823;49.028;8.454;2023-04-21T23:32:59;7.93;;;3.92;;
1651;SDS011;823;49.028;8.454;2023-04-21T23:37:59;17.00;;;4.90;;
1651;SDS011;823;49.028;8.454;2023-04-21T23:43:00;4.83;;;3.60;;
1651;SDS011;823;49.028;8.454;2023-04-21T23:48:00;7.30;;;3.87;;
1651;SDS011;823;49.028;8.454;2023-04-21T23:53:00;12.73;;;4.20;;
1651;SDS011;823;49.028;8.454;2023-04-21T23:58:01;9.18;;;3.65;;
